sensor_id;sensor_type;location;lat;lon;timestamp;pressure;altitude;pressure_sealevel;temperature;humidity
36354;BME280;22383;51.114;13.666;2024-03-02T00:00:51;67956.22;;;6.93;100.00
36354;BME280;22383;51.114;13.666;2024-03-02T00:03:19;67943.78;;;6.81;100.00
36354;BME280;22383;51.114;13.666;2024-03-02T00:05:50;67947.00;;;6.89;100.00
36354;BME280;22383;51.114;13.666;2024-03-02T00:08:23;67944.53;;;6.85;100.00
36354;BME280;22383;51.114;13.666;2024-03-02T00:10:51;67947.16;;;6.85;100.00
36354;BME280;22383;51.114;13.666;2024-03-02T00:13:22;67960.38;;;6.99;100.00
36354;BME280;22383;51.114;13.666;2024-03-02T00:15:54;67954.91;;;6.96;100.00
36354;BME280;22383;51.114;13.666;2024-03-02T00:18:30;67956.41;;;6.95;100.00
36354;BME280;22383;51.114;13.666;2024-03-02T00:20:58;67956.97;;;6.96;100.00
36354;BME280;22383;51.114;13.666;2024-03-02T00:23:29;67959.59;;;6.96;100.00
36354;BME280;22383;51.114;13.666;2024-03-02T00:25:57;67959.25;;;6.98;100.00
36354;BME280;22383;51.114;13.666;2024-03-02T00:28:29;67964.91;;;7.03;100.00
36354;BME280;22383;51.114;13.666;2024-03-02T00:31:11;67969.41;;;7.07;100.00
36354;BME280;22383;51.114;13.666;2024-03-02T00:33:46;67971.69;;;7.09;100.00
36354;BME280;22383;51.114;13.666;2024-03-02T00:36:34;67974.13;;;7.14;100.00
36354;BME280;22383;51.114;13.666;2024-03-02T00:39:02;67974.13;;;7.14;100.00
36354;BME280;22383;51.114;13.666;2024-03-02T00:41:30;67968.47;;;7.09;100.00
36354;BME280;22383;51.114;13.666;2024-03-02T00:43:59;67975.63;;;7.13;100.00
36354;BME280;22383;51.114;13.666;2024-03-02T00:46:29;67988.63;;;7.25;100.00
36354;BME280;22383;51.114;13.666;2024-03-02T00:48:59;67990.53;;;7.29;100.00
36354;BME280;22383;51.114;13.666;2024-03-02T00:51:29;67994.84;;;7.30;100.00
36354;BME280;22383;51.114;13.666;2024-03-02T00:54:01;67993.91;;;7.25;100.00
36354;BME280;22383;51.114;13.666;2024-03-02T00:56:32;67982.63;;;7.22;100.00
36354;BME280;22383;51.114;13.666;2024-03-02T00:58:59;67985.25;;;7.22;100.00
36354;BME280;22383;51.114;13.666;2024-03-02T01:01:26;67991.06;;;7.22;100.00
36354;BME280;22383;51.114;13.666;2024-03-02T01:03:54;67979.78;;;7.19;100.00
36354;BME280;22383;51.114;13.666;2024-03-02T01:06:21;67978.47;;;7.15;100.00
36354;BME280;22383;51.114;13.666;2024-03-02T01:08:49;67982.59;;;7.14;100.00
36354;BME280;22383;51.114;13.666;2024-03-02T01:11:20;67980.34;;;7.12;100.00
36354;BME280;22383;51.114;13.666;2024-03-02T01:13:51;67962.06;;;7.00;100.00
36354;BME280;22383;51.114;13.666;2024-03-02T01:16:19;67950.03;;;6.94;100.00
36354;BME280;22383;51.114;13.666;2024-03-02T01:18:46;67952.44;;;6.92;100.00
36354;BME280;22383;51.114;13.666;2024-03-02T01:21:14;67956.41;;;6.95;100.00
36354;BME280;22383;51.114;13.666;2024-03-02T01:23:41;67952.44;;;6.92;100.00
36354;BME280;22383;51.114;13.666;2024-03-02T01:26:08;67949.06;;;6.89;100.00
36354;BME280;22383;51.114;13.666;2024-03-02T01:28:35;67948.88;;;6.86;100.00
36354;BME280;22383;51.114;13.666;2024-03-02T01:31:03;67922.00;;;6.86;100.00
36354;BME280;22383;51.114;13.666;2024-03-02T01:33:30;67947.16;;;6.85;100.00
36354;BME280;22383;51.114;13.666;2024-03-02T01:35:58;67948.88;;;6.86;100.00
36354;BME280;22383;51.114;13.666;2024-03-02T01:38:25;67948.50;;;6.88;100.00
36354;BME280;22383;51.114;13.666;2024-03-02T01:40:52;67957.19;;;6.98;100.00
36354;BME280;22383;51.114;13.666;2024-03-02T01:43:19;67970.75;;;7.11;100.00
36354;BME280;22383;51.114;13.666;2024-03-02T01:45:46;67970.75;;;7.11;100.00
36354;BME280;22383;51.114;13.666;2024-03-02T01:48:13;67966.59;;;7.05;100.00
36354;BME280;22383;51.114;13.666;2024-03-02T01:50:41;67973.38;;;7.11;100.00
36354;BME280;22383;51.114;13.666;2024-03-02T01:53:08;67976.41;;;7.16;100.00
36354;BME280;22383;51.114;13.666;2024-03-02T01:55:35;67997.47;;;7.30;100.00
36354;BME280;22383;51.114;13.666;2024-03-02T01:58:02;67990.72;;;7.24;100.00
36354;BME280;22383;51.114;13.666;2024-03-02T02:00:30;67986.56;;;7.25;100.00
36354;BME280;22383;51.114;13.666;2024-03-02T02:02:57;67974.50;;;7.12;100.00
36354;BME280;22383;51.114;13.666;2024-03-02T02:05:25;67973.94;;;7.11;100.00
36354;BME280;22383;51.114;13.666;2024-03-02T02:07:52;67976.78;;;7.14;100.00
36354;BME280;22383;51.114;13.666;2024-03-02T02:10:19;67985.63;;;7.19;100.00
36354;BME280;22383;51.114;13.666;2024-03-02T02:12:46;67989.56;;;7.23;100.00
36354;BME280;22383;51.114;13.666;2024-03-02T02:15:29;67979.03;;;7.16;100.00
36354;BME280;22383;51.114;13.666;2024-03-02T02:17:58;67971.13;;;7.09;100.00
36354;BME280;22383;51.114;13.666;2024-03-02T02:20:26;67973.38;;;7.11;100.00
36354;BME280;22383;51.114;13.666;2024-03-02T02:22:58;67973.38;;;7.11;100.00
36354;BME280;22383;51.114;13.666;2024-03-02T02:25:26;67986.56;;;7.18;100.00
36354;BME280;22383;51.114;13.666;2024-03-02T02:27:53;67980.72;;;7.17;100.00
36354;BME280;22383;51.114;13.666;2024-03-02T02:30:22;67979.03;;;7.16;100.00
36354;BME280;22383;51.114;13.666;2024-03-02T02:32:50;67976.00;;;7.11;100.00
36354;BME280;22383;51.114;13.666;2024-03-02T02:35:17;67979.59;;;7.16;100.00
36354;BME280;22383;51.114;13.666;2024-03-02T02:41:57;67975.63;;;7.13;100.00
36354;BME280;22383;51.114;13.666;2024-03-02T02:44:24;67974.31;;;7.09;100.00
36354;BME280;22383;51.114;13.666;2024-03-02T02:46:52;67982.63;;;7.22;100.00
36354;BME280;22383;51.114;13.666;2024-03-02T02:49:19;67989.19;;;7.25;100.00
36354;BME280;22383;51.114;13.666;2024-03-02T02:51:46;67987.50;;;7.24;100.00
36354;BME280;22383;51.114;13.666;2024-03-02T02:54:13;67992.59;;;7.28;100.00
36354;BME280;22383;51.114;13.666;2024-03-02T02:56:42;67995.59;;;7.26;100.00
36354;BME280;22383;51.114;13.666;2024-03-02T02:59:09;67980.91;;;7.20;100.00
36354;BME280;22383;51.114;13.666;2024-03-02T03:01:36;67985.06;;;7.19;100.00
36354;BME280;22383;51.114;13.666;2024-03-02T03:04:04;67977.34;;;7.14;100.00
36354;BME280;22383;51.114;13.666;2024-03-02T03:06:31;67976.78;;;7.14;100.00
36354;BME280;22383;51.114;13.666;2024-03-02T03:08:58;67976.41;;;7.16;100.00
36354;BME280;22383;51.114;13.666;2024-03-02T03:11:25;67971.88;;;7.12;100.00
36354;BME280;22383;51.114;13.666;2024-03-02T03:13:53;67975.84;;;7.15;100.00
36354;BME280;22383;51.114;13.666;2024-03-02T03:16:21;67983.34;;;7.17;100.00
36354;BME280;22383;51.114;13.666;2024-03-02T03:18:48;67976.97;;;7.16;100.00
36354;BME280;22383;51.114;13.666;2024-03-02T03:21:18;67977.34;;;7.14;100.00
36354;BME280;22383;51.114;13.666;2024-03-02T03:23:45;67996.75;;;7.34;100.00
36354;BME280;22383;51.114;13.666;2024-03-02T03:26:13;67991.84;;;7.32;100.00
36354;BME280;22383;51.114;13.666;2024-03-02T03:28:40;67992.97;;;7.26;100.00
36354;BME280;22383;51.114;13.666;2024-03-02T03:31:07;68018.97;;;7.50;100.00
36354;BME280;22383;51.114;13.666;2024-03-02T03:33:34;67993.75;;;7.29;100.00
36354;BME280;22383;51.114;13.666;2024-03-02T03:36:01;67983.94;;;7.25;100.00
36354;BME280;22383;51.114;13.666;2024-03-02T03:38:30;67979.78;;;7.19;100.00
36354;BME280;22383;51.114;13.666;2024-03-02T03:40:57;67956.47;;;7.17;100.00
36354;BME280;22383;51.114;13.666;2024-03-02T03:43:24;67976.56;;;7.11;100.00
36354;BME280;22383;51.114;13.666;2024-03-02T03:45:51;67970.19;;;7.10;100.00
36354;BME280;22383;51.114;13.666;2024-03-02T03:48:19;67966.22;;;7.07;100.00
36354;BME280;22383;51.114;13.666;2024-03-02T03:50:46;67973.75;;;7.09;100.00
36354;BME280;22383;51.114;13.666;2024-03-02T03:53:13;67970.56;;;7.08;100.00
36354;BME280;22383;51.114;13.666;2024-03-02T03:55:41;67973.38;;;7.11;100.00
36354;BME280;22383;51.114;13.666;2024-03-02T03:58:08;67974.50;;;7.12;100.00
36354;BME280;22383;51.114;13.666;2024-03-02T04:00:35;67973.75;;;7.09;100.00
36354;BME280;22383;51.114;13.666;2024-03-02T04:03:03;67968.84;;;7.07;100.00
36354;BME280;22383;51.114;13.666;2024-03-02T04:05:30;67967.16;;;7.05;100.00
36354;BME280;22383;51.114;13.666;2024-03-02T04:07:57;67963.00;;;7.06;100.00
36354;BME280;22383;51.114;13.666;2024-03-02T04:10:24;67965.09;;;7.06;100.00
36354;BME280;22383;51.114;13.666;2024-03-02T04:12:52;67963.59;;;7.07;100.00
36354;BME280;22383;51.114;13.666;2024-03-02T04:15:19;67968.28;;;7.06;100.00
36354;BME280;22383;51.114;13.666;2024-03-02T04:17:46;67971.28;;;7.04;100.00
36354;BME280;22383;51.114;13.666;2024-03-02T04:20:13;67967.16;;;7.05;100.00
36354;BME280;22383;51.114;13.666;2024-03-02T04:22:41;67963.94;;;7.05;100.00
36354;BME280;22383;51.114;13.666;2024-03-02T04:25:08;67969.97;;;7.08;100.00
36354;BME280;22383;51.114;13.666;2024-03-02T04:27:36;67970.56;;;7.08;100.00
36354;BME280;22383;51.114;13.666;2024-03-02T04:30:04;67971.50;;;7.07;100.00
36354;BME280;22383;51.114;13.666;2024-03-02T04:32:32;67967.34;;;7.08;100.00
36354;BME280;22383;51.114;13.666;2024-03-02T04:34:59;67967.72;;;7.06;100.00
36354;BME280;22383;51.114;13.666;2024-03-02T04:37:26;67968.13;;;7.11;100.00
36354;BME280;22383;51.114;13.666;2024-03-02T04:39:53;67969.25;;;7.12;100.00
36354;BME280;22383;51.114;13.666;2024-03-02T04:42:21;67965.84;;;7.09;100.00
36354;BME280;22383;51.114;13.666;2024-03-02T04:44:48;67981.84;;;7.18;100.00
36354;BME280;22383;51.114;13.666;2024-03-02T04:47:15;67980.72;;;7.17;100.00
36354;BME280;22383;51.114;13.666;2024-03-02T04:49:42;67980.34;;;7.12;100.00
36354;BME280;22383;51.114;13.666;2024-03-02T04:52:10;67975.06;;;7.12;100.00
36354;BME280;22383;51.114;13.666;2024-03-02T04:54:37;67976.78;;;7.14;100.00
36354;BME280;22383;51.114;13.666;2024-03-02T04:57:24;67977.16;;;7.12;100.00
36354;BME280;22383;51.114;13.666;2024-03-02T04:59:51;67962.84;;;7.04;100.00
36354;BME280;22383;51.114;13.666;2024-03-02T05:02:18;67966.03;;;7.04;100.00
36354;BME280;22383;51.114;13.666;2024-03-02T05:04:46;67967.72;;;7.06;100.00
36354;BME280;22383;51.114;13.666;2024-03-02T05:07:14;67964.31;;;7.03;100.00
36354;BME280;22383;51.114;13.666;2024-03-02T05:09:42;67966.03;;;7.04;100.00
36354;BME280;22383;51.114;13.666;2024-03-02T05:12:10;67967.34;;;7.08;100.00
36354;BME280;22383;51.114;13.666;2024-03-02T05:14:55;67966.03;;;7.04;100.00
36354;BME280;22383;51.114;13.666;2024-03-02T05:17:23;67960.75;;;7.04;100.00
36354;BME280;22383;51.114;13.666;2024-03-02T05:19:50;67957.94;;;7.02;100.00
36354;BME280;22383;51.114;13.666;2024-03-02T05:22:17;67959.81;;;6.98;100.00
36354;BME280;22383;51.114;13.666;2024-03-02T05:24:44;67966.03;;;7.04;100.00
36354;BME280;22383;51.114;13.666;2024-03-02T05:27:12;67965.28;;;7.08;100.00
36354;BME280;22383;51.114;13.666;2024-03-02T05:29:39;67959.44;;;7.00;100.00
36354;BME280;22383;51.114;13.666;2024-03-02T05:32:06;67954.00;;;6.98;100.00
36354;BME280;22383;51.114;13.666;2024-03-02T05:34:34;67965.66;;;7.06;100.00
36354;BME280;22383;51.114;13.666;2024-03-02T05:37:02;67965.09;;;7.06;100.00
36354;BME280;22383;51.114;13.666;2024-03-02T05:39:29;67969.22;;;7.05;100.00
36354;BME280;22383;51.114;13.666;2024-03-02T05:41:56;67965.63;;;6.99;100.00
36354;BME280;22383;51.114;13.666;2024-03-02T05:44:23;67955.84;;;6.95;100.00
36354;BME280;22383;51.114;13.666;2024-03-02T05:46:50;67951.72;;;6.96;100.00
36354;BME280;22383;51.114;13.666;2024-03-02T05:49:18;67953.22;;;6.95;100.00
36354;BME280;22383;51.114;13.666;2024-03-02T05:51:45;67964.91;;;7.03;100.00
36354;BME280;22383;51.114;13.666;2024-03-02T05:54:12;67956.41;;;6.95;100.00
36354;BME280;22383;51.114;13.666;2024-03-02T05:56:39;67952.66;;;6.94;100.00
36354;BME280;22383;51.114;13.666;2024-03-02T05:59:06;67967.56;;;7.10;100.00
36354;BME280;22383;51.114;13.666;2024-03-02T06:01:40;67956.81;;;7.00;100.00
36354;BME280;22383;51.114;13.666;2024-03-02T06:04:12;67955.84;;;6.95;100.00
36354;BME280;22383;51.114;13.666;2024-03-02T06:06:39;67955.28;;;6.94;100.00
36354;BME280;22383;51.114;13.666;2024-03-02T06:09:07;67962.63;;;7.01;100.00
36354;BME280;22383;51.114;13.666;2024-03-02T06:11:35;67968.28;;;7.06;100.00
36354;BME280;22383;51.114;13.666;2024-03-02T06:14:04;67970.75;;;7.11;100.00
36354;BME280;22383;51.114;13.666;2024-03-02T06:16:31;67963.38;;;7.04;100.00
36354;BME280;22383;51.114;13.666;2024-03-02T06:18:58;67960.56;;;7.02;100.00
36354;BME280;22383;51.114;13.666;2024-03-02T06:21:26;67960.56;;;7.02;100.00
36354;BME280;22383;51.114;13.666;2024-03-02T06:23:54;67972.81;;;7.10;100.00
36354;BME280;22383;51.114;13.666;2024-03-02T06:26:21;67969.78;;;7.05;100.00
36354;BME280;22383;51.114;13.666;2024-03-02T06:28:52;67966.22;;;7.07;100.00
36354;BME280;22383;51.114;13.666;2024-03-02T06:31:19;67960.00;;;7.01;100.00
36354;BME280;22383;51.114;13.666;2024-03-02T06:33:46;67961.88;;;6.98;100.00
36354;BME280;22383;51.114;13.666;2024-03-02T06:36:13;67955.28;;;6.94;100.00
36354;BME280;22383;51.114;13.666;2024-03-02T06:38:42;67951.53;;;6.93;100.00
36354;BME280;22383;51.114;13.666;2024-03-02T06:41:09;67963.00;;;6.99;100.00
36354;BME280;22383;51.114;13.666;2024-03-02T06:43:37;67988.09;;;7.24;100.00
36354;BME280;22383;51.114;13.666;2024-03-02T06:46:05;67994.09;;;7.34;100.00
36354;BME280;22383;51.114;13.666;2024-03-02T06:48:36;68014.09;;;7.48;100.00
36354;BME280;22383;51.114;13.666;2024-03-02T06:51:03;67997.47;;;7.30;100.00
36354;BME280;22383;51.114;13.666;2024-03-02T06:53:30;68005.78;;;7.43;100.00
36354;BME280;22383;51.114;13.666;2024-03-02T06:55:58;67980.72;;;7.17;100.00
36354;BME280;22383;51.114;13.666;2024-03-02T06:58:25;67987.13;;;7.26;100.00
36354;BME280;22383;51.114;13.666;2024-03-02T07:00:53;67990.72;;;7.31;100.00
36354;BME280;22383;51.114;13.666;2024-03-02T07:03:20;67979.78;;;7.19;100.00
36354;BME280;22383;51.114;13.666;2024-03-02T07:05:48;67977.16;;;7.12;100.00
36354;BME280;22383;51.114;13.666;2024-03-02T07:08:15;67977.88;;;7.15;100.00
36354;BME280;22383;51.114;13.666;2024-03-02T07:10:42;67983.53;;;7.20;100.00
36354;BME280;22383;51.114;13.666;2024-03-02T07:13:10;67991.47;;;7.27;100.00
36354;BME280;22383;51.114;13.666;2024-03-02T07:15:37;68000.50;;;7.35;100.00
36354;BME280;22383;51.114;13.666;2024-03-02T07:18:42;67977.88;;;7.15;100.00
36354;BME280;22383;51.114;13.666;2024-03-02T07:21:12;67994.28;;;7.30;100.00
36354;BME280;22383;51.114;13.666;2024-03-02T07:23:39;67974.69;;;7.14;100.00
36354;BME280;22383;51.114;13.666;2024-03-02T07:26:07;67977.16;;;7.12;100.00
36354;BME280;22383;51.114;13.666;2024-03-02T07:28:37;67977.50;;;7.17;100.00
36354;BME280;22383;51.114;13.666;2024-03-02T07:31:04;67967.72;;;7.06;100.00
36354;BME280;22383;51.114;13.666;2024-03-02T07:33:32;67963.94;;;7.05;100.00
36354;BME280;22383;51.114;13.666;2024-03-02T07:36:00;67985.81;;;7.22;100.00
36354;BME280;22383;51.114;13.666;2024-03-02T07:38:31;67969.59;;;7.10;100.00
36354;BME280;22383;51.114;13.666;2024-03-02T07:41:01;67968.47;;;7.09;100.00
36354;BME280;22383;51.114;13.666;2024-03-02T07:43:28;67968.28;;;7.06;100.00
36354;BME280;22383;51.114;13.666;2024-03-02T07:45:55;67970.56;;;7.08;100.00
36354;BME280;22383;51.114;13.666;2024-03-02T07:48:23;67965.66;;;7.06;100.00
36354;BME280;22383;51.114;13.666;2024-03-02T07:50:50;67944.59;;;7.06;100.00
36354;BME280;22383;51.114;13.666;2024-03-02T07:53:17;67967.72;;;7.06;100.00
36354;BME280;22383;51.114;13.666;2024-03-02T07:55:45;67977.16;;;7.12;100.00
36354;BME280;22383;51.114;13.666;2024-03-02T07:58:14;67976.94;;;7.09;100.00
36354;BME280;22383;51.114;13.666;2024-03-02T08:00:41;67968.47;;;7.09;100.00
36354;BME280;22383;51.114;13.666;2024-03-02T08:03:09;67988.44;;;7.22;100.00
36354;BME280;22383;51.114;13.666;2024-03-02T08:05:39;67984.31;;;7.23;100.00
36354;BME280;22383;51.114;13.666;2024-03-02T08:08:06;68002.22;;;7.37;100.00
36354;BME280;22383;51.114;13.666;2024-03-02T08:10:33;67997.69;;;7.33;100.00
36354;BME280;22383;51.114;13.666;2024-03-02T08:13:00;68002.78;;;7.37;100.00
36354;BME280;22383;51.114;13.666;2024-03-02T08:15:28;68007.31;;;7.42;100.00
36354;BME280;22383;51.114;13.666;2024-03-02T08:17:56;68005.22;;;7.42;100.00
36354;BME280;22383;51.114;13.666;2024-03-02T08:20:23;68018.59;;;7.52;100.00
36354;BME280;22383;51.114;13.666;2024-03-02T08:22:51;67998.81;;;7.34;100.00
36354;BME280;22383;51.114;13.666;2024-03-02T08:25:18;68002.97;;;7.40;100.00
36354;BME280;22383;51.114;13.666;2024-03-02T08:27:46;68003.53;;;7.41;100.00
36354;BME280;22383;51.114;13.666;2024-03-02T08:30:14;68003.91;;;7.38;100.00
36354;BME280;22383;51.114;13.666;2024-03-02T08:32:41;68021.81;;;7.52;100.00
36354;BME280;22383;51.114;13.666;2024-03-02T08:35:08;68020.88;;;7.54;100.00
36354;BME280;22383;51.114;13.666;2024-03-02T08:37:39;68001.84;;;7.39;100.00
36354;BME280;22383;51.114;13.666;2024-03-02T08:40:07;68003.91;;;7.38;100.00
36354;BME280;22383;51.114;13.666;2024-03-02T08:42:35;67998.03;;;7.31;100.00
36354;BME280;22383;51.114;13.666;2024-03-02T08:45:02;67988.81;;;7.27;100.00
36354;BME280;22383;51.114;13.666;2024-03-02T08:47:30;67989.19;;;7.25;100.00
36354;BME280;22383;51.114;13.666;2024-03-02T08:49:57;67988.09;;;7.24;100.00
36354;BME280;22383;51.114;13.666;2024-03-02T08:52:27;67971.16;;;7.30;100.00
36354;BME280;22383;51.114;13.666;2024-03-02T08:54:54;67993.16;;;7.29;100.00
36354;BME280;22383;51.114;13.666;2024-03-02T08:57:22;67993.00;;;7.33;100.00
36354;BME280;22383;51.114;13.666;2024-03-02T08:59:49;67999.56;;;7.37;100.00
36354;BME280;22383;51.114;13.666;2024-03-02T09:02:16;68005.41;;;7.37;100.00
36354;BME280;22383;51.114;13.666;2024-03-02T09:04:43;67999.75;;;7.39;100.00
36354;BME280;22383;51.114;13.666;2024-03-02T09:07:11;68012.22;;;7.51;100.00
36354;BME280;22383;51.114;13.666;2024-03-02T09:09:38;68030.28;;;7.60;100.00
36354;BME280;22383;51.114;13.666;2024-03-02T09:12:07;68035.19;;;7.69;100.00
36354;BME280;22383;51.114;13.666;2024-03-02T09:14:36;68040.84;;;7.74;100.00
36354;BME280;22383;51.114;13.666;2024-03-02T09:17:04;68064.63;;;7.89;100.00
36354;BME280;22383;51.114;13.666;2024-03-02T09:19:31;68072.91;;;8.01;100.00
36354;BME280;22383;51.114;13.666;2024-03-02T09:21:58;68077.44;;;8.05;100.00
36354;BME280;22383;51.114;13.666;2024-03-02T09:24:26;68097.44;;;8.26;100.00
36354;BME280;22383;51.114;13.666;2024-03-02T09:26:54;68097.22;;;8.23;100.00
36354;BME280;22383;51.114;13.666;2024-03-02T09:29:21;68086.13;;;8.16;100.00
36354;BME280;22383;51.114;13.666;2024-03-02T09:31:49;68091.03;;;8.18;100.00
36354;BME280;22383;51.114;13.666;2024-03-02T09:34:17;68090.47;;;8.17;100.00
36354;BME280;22383;51.114;13.666;2024-03-02T09:36:45;68077.63;;;8.08;100.00
36354;BME280;22383;51.114;13.666;2024-03-02T09:39:12;68085.91;;;8.13;100.00
36354;BME280;22383;51.114;13.666;2024-03-02T09:41:39;68111.97;;;8.37;100.00
36354;BME280;22383;51.114;13.666;2024-03-02T09:44:07;68094.41;;;8.21;100.00
36354;BME280;22383;51.114;13.666;2024-03-02T09:46:36;68107.63;;;8.35;100.00
36354;BME280;22383;51.114;13.666;2024-03-02T09:49:04;68108.56;;;8.33;100.00
36354;BME280;22383;51.114;13.666;2024-03-02T09:51:32;68125.75;;;8.51;100.00
36354;BME280;22383;51.114;13.666;2024-03-02T09:54:00;68117.03;;;8.41;100.00
36354;BME280;22383;51.114;13.666;2024-03-02T09:56:44;68137.63;;;8.62;100.00
36354;BME280;22383;51.114;13.666;2024-03-02T09:59:11;68139.91;;;8.64;100.00
36354;BME280;22383;51.114;13.666;2024-03-02T10:01:55;68131.41;;;8.57;100.00
36354;BME280;22383;51.114;13.666;2024-03-02T10:04:28;68123.84;;;8.47;100.00
36354;BME280;22383;51.114;13.666;2024-03-02T10:07:15;68135.38;;;8.60;100.00
36354;BME280;22383;51.114;13.666;2024-03-02T10:09:45;68130.84;;;8.56;100.00
36354;BME280;22383;51.114;13.666;2024-03-02T10:12:14;68163.47;;;8.83;100.00
36354;BME280;22383;51.114;13.666;2024-03-02T10:14:43;68151.78;;;8.75;100.00
36354;BME280;22383;51.114;13.666;2024-03-02T10:17:13;68142.34;;;8.69;100.00
36354;BME280;22383;51.114;13.666;2024-03-02T10:19:40;68172.72;;;8.87;100.00
36354;BME280;22383;51.114;13.666;2024-03-02T10:22:09;68177.81;;;8.99;100.00
36354;BME280;22383;51.114;13.666;2024-03-02T10:24:44;68175.38;;;8.94;100.00
36354;BME280;22383;51.114;13.666;2024-03-02T10:27:18;68192.34;;;9.09;100.00
36354;BME280;22383;51.114;13.666;2024-03-02T10:29:46;68208.56;;;9.22;100.00
36354;BME280;22383;51.114;13.666;2024-03-02T10:32:15;68206.53;;;9.22;100.00
36354;BME280;22383;51.114;13.666;2024-03-02T10:34:46;68221.06;;;9.33;100.00
36354;BME280;22383;51.114;13.666;2024-03-02T10:37:15;68221.22;;;9.36;100.00
36354;BME280;22383;51.114;13.666;2024-03-02T10:39:42;68238.22;;;9.51;100.00
36354;BME280;22383;51.114;13.666;2024-03-02T10:42:10;68223.53;;;9.59;100.00
36354;BME280;22383;51.114;13.666;2024-03-02T10:44:39;68265.03;;;9.78;100.00
36354;BME280;22383;51.114;13.666;2024-03-02T10:47:08;68267.88;;;9.80;100.00
36354;BME280;22383;51.114;13.666;2024-03-02T10:49:37;68267.31;;;9.80;100.00
36354;BME280;22383;51.114;13.666;2024-03-02T10:52:05;68247.69;;;9.57;100.00
36354;BME280;22383;51.114;13.666;2024-03-02T10:54:32;68247.31;;;9.59;100.00
36354;BME280;22383;51.114;13.666;2024-03-02T10:57:04;68249.19;;;9.63;100.00
36354;BME280;22383;51.114;13.666;2024-03-02T10:59:48;68261.47;;;9.72;100.00
36354;BME280;22383;51.114;13.666;2024-03-02T11:02:20;68286.56;;;9.97;100.00
36354;BME280;22383;51.114;13.666;2024-03-02T11:04:49;68303.78;;;10.15;100.00
36354;BME280;22383;51.114;13.666;2024-03-02T11:07:18;68320.41;;;10.26;100.00
36354;BME280;22383;51.114;13.666;2024-03-02T11:10:01;68341.00;;;10.47;100.00
36354;BME280;22383;51.114;13.666;2024-03-02T11:12:50;68353.84;;;10.56;100.00
36354;BME280;22383;51.114;13.666;2024-03-02T11:15:20;68336.09;;;10.45;100.00
36354;BME280;22383;51.114;13.666;2024-03-02T11:17:53;68358.94;;;10.60;100.00
36354;BME280;22383;51.114;13.666;2024-03-02T11:20:21;68387.50;;;10.89;100.00
36354;BME280;22383;51.114;13.666;2024-03-02T11:22:49;68405.06;;;11.05;100.00
36354;BME280;22383;51.114;13.666;2024-03-02T11:25:26;68413.78;;;11.15;100.00
36354;BME280;22383;51.114;13.666;2024-03-02T11:33:05;68470.13;;;11.61;100.00
36354;BME280;22383;51.114;13.666;2024-03-02T11:35:44;68473.16;;;11.66;100.00
36354;BME280;22383;51.114;13.666;2024-03-02T11:38:14;68504.94;;;11.95;100.00
36354;BME280;22383;51.114;13.666;2024-03-02T11:40:41;68505.31;;;11.93;100.00
36354;BME280;22383;51.114;13.666;2024-03-02T11:43:09;68551.31;;;12.35;100.00
36354;BME280;22383;51.114;13.666;2024-03-02T11:45:42;68546.72;;;12.52;100.00
36354;BME280;22383;51.114;13.666;2024-03-02T11:48:14;68554.31;;;12.40;100.00
36354;BME280;22383;51.114;13.666;2024-03-02T11:50:47;68544.47;;;12.28;100.00
36354;BME280;22383;51.114;13.666;2024-03-02T11:53:14;68554.72;;;12.38;100.00
36354;BME280;22383;51.114;13.666;2024-03-02T11:55:42;68551.31;;;12.35;100.00
36354;BME280;22383;51.114;13.666;2024-03-02T11:58:14;68535.41;;;12.20;100.00
36354;BME280;22383;51.114;13.666;2024-03-02T12:00:44;68523.84;;;12.15;100.00
36354;BME280;22383;51.114;13.666;2024-03-02T12:03:13;68538.63;;;12.21;100.00
36354;BME280;22383;51.114;13.666;2024-03-02T12:05:42;68503.63;;;11.91;100.00
36354;BME280;22383;51.114;13.666;2024-03-02T12:08:09;68531.25;;;12.14;100.00
36354;BME280;22383;51.114;13.666;2024-03-02T12:10:39;68461.63;;;11.53;100.00
36354;BME280;22383;51.114;13.666;2024-03-02T12:13:07;68441.75;;;11.35;100.00
36354;BME280;22383;51.114;13.666;2024-03-02T12:15:37;68436.66;;;11.31;100.00
36354;BME280;22383;51.114;13.666;2024-03-02T12:18:05;68414.53;;;11.11;100.00
36354;BME280;22383;51.114;13.666;2024-03-02T12:20:33;68391.09;;;10.87;100.00
36354;BME280;22383;51.114;13.666;2024-03-02T12:23:02;68406.41;;;11.01;100.00
36354;BME280;22383;51.114;13.666;2024-03-02T12:25:31;68388.44;;;10.87;100.00
36354;BME280;22383;51.114;13.666;2024-03-02T12:28:01;68416.59;;;11.10;100.00
36354;BME280;22383;51.114;13.666;2024-03-02T12:30:30;68412.81;;;11.09;100.00
36354;BME280;22383;51.114;13.666;2024-03-02T12:32:58;68388.06;;;10.89;100.00
36354;BME280;22383;51.114;13.666;2024-03-02T12:35:25;68396.38;;;10.94;100.00
36354;BME280;22383;51.114;13.666;2024-03-02T12:37:53;68396.00;;;10.96;100.00
36354;BME280;22383;51.114;13.666;2024-03-02T12:40:21;68395.25;;;10.93;100.00
36354;BME280;22383;51.114;13.666;2024-03-02T12:42:50;68385.03;;;10.84;100.00
36354;BME280;22383;51.114;13.666;2024-03-02T12:45:18;68405.47;;;11.03;100.00
36354;BME280;22383;51.114;13.666;2024-03-02T12:47:52;68402.06;;;11.00;100.00
36354;BME280;22383;51.114;13.666;2024-03-02T12:50:20;68382.75;;;11.04;100.00
36354;BME280;22383;51.114;13.666;2024-03-02T12:52:54;68419.44;;;11.13;100.00
36354;BME280;22383;51.114;13.666;2024-03-02T12:55:22;68387.13;;;10.84;100.00
36354;BME280;22383;51.114;13.666;2024-03-02T12:57:53;68366.69;;;10.72;100.00
36354;BME280;22383;51.114;13.666;2024-03-02T13:00:21;68353.28;;;10.55;100.00
36354;BME280;22383;51.114;13.666;2024-03-02T13:02:50;68356.31;;;10.60;100.00
36354;BME280;22383;51.114;13.666;2024-03-02T13:05:19;68362.94;;;10.64;100.00